sensor_id;sensor_type;location;lat;lon;timestamp;P1;durP1;ratioP1;P2;durP2;ratioP2
3667;SDS011;24099;47.102;15.440;2023-09-18T00:03:45;4.35;;;2.83;;
3667;SDS011;24099;47.102;15.440;2023-09-18T00:06:12;3.65;;;2.97;;
3667;SDS011;24099;47.102;15.440;2023-09-18T00:08:39;4.07;;;3.25;;
3667;SDS011;24099;47.102;15.440;2023-09-18T00:13:36;4.70;;;2.83;;
3667;SDS011;24099;47.102;15.440;2023-09-18T00:16:03;5.32;;;3.45;;
3667;SDS011;24099;47.102;15.440;2023-09-18T00:18:31;5.68;;;2.97;;
3667;SDS011;24099;47.102;15.440;2023-09-18T00:20:58;4.55;;;3.17;;
3667;SDS011;24099;47.102;15.440;2023-09-18T00:23:25;9.27;;;3.05;;
3667;SDS011;24099;47.102;15.440;2023-09-18T00:25:52;4.63;;;2.80;;
3667;SDS011;24099;47.102;15.440;2023-09-18T00:30:49;4.93;;;3.08;;
3667;SDS011;24099;47.102;15.440;2023-09-18T00:33:17;3.88;;;2.85;;
3667;SDS011;24099;47.102;15.440;2023-09-18T00:35:45;5.35;;;3.40;;
3667;SDS011;24099;47.102;15.440;2023-09-18T00:38:13;3.35;;;2.75;;
3667;SDS011;24099;47.102;15.440;2023-09-18T00:40:40;5.70;;;3.10;;
3667;SDS011;24099;47.102;15.440;2023-09-18T00:43:07;4.18;;;2.95;;
3667;SDS011;24099;47.102;15.440;2023-09-18T00:45:36;6.30;;;3.10;;
3667;SDS011;24099;47.102;15.440;2023-09-18T00:48:06;5.93;;;3.42;;
3667;SDS011;24099;47.102;15.440;2023-09-18T00:50:34;4.30;;;3.00;;
3667;SDS011;24099;47.102;15.440;2023-09-18T00:53:01;4.45;;;3.30;;
3667;SDS011;24099;47.102;15.440;2023-09-18T00:55:29;3.72;;;3.00;;
3667;SDS011;24099;47.102;15.440;2023-09-18T00:57:57;3.92;;;3.03;;
3667;SDS011;24099;47.102;15.440;2023-09-18T01:00:25;9.00;;;3.25;;
3667;SDS011;24099;47.102;15.440;2023-09-18T01:02:52;3.22;;;2.70;;
3667;SDS011;24099;47.102;15.440;2023-09-18T01:05:21;6.60;;;2.97;;
3667;SDS011;24099;47.102;15.440;2023-09-18T01:07:48;4.75;;;2.63;;
3667;SDS011;24099;47.102;15.440;2023-09-18T01:10:16;3.88;;;3.08;;
3667;SDS011;24099;47.102;15.440;2023-09-18T01:12:45;5.72;;;3.00;;
3667;SDS011;24099;47.102;15.440;2023-09-18T01:15:15;6.35;;;2.60;;
3667;SDS011;24099;47.102;15.440;2023-09-18T01:17:44;6.15;;;3.30;;
3667;SDS011;24099;47.102;15.440;2023-09-18T01:20:12;10.05;;;3.08;;
3667;SDS011;24099;47.102;15.440;2023-09-18T01:22:40;5.25;;;3.13;;
3667;SDS011;24099;47.102;15.440;2023-09-18T01:25:08;3.70;;;2.67;;
3667;SDS011;24099;47.102;15.440;2023-09-18T01:27:36;8.38;;;2.88;;
3667;SDS011;24099;47.102;15.440;2023-09-18T01:30:03;2.92;;;2.60;;
3667;SDS011;24099;47.102;15.440;2023-09-18T01:32:31;6.38;;;3.15;;
3667;SDS011;24099;47.102;15.440;2023-09-18T01:35:00;5.38;;;3.10;;
3667;SDS011;24099;47.102;15.440;2023-09-18T01:37:29;4.25;;;3.17;;
3667;SDS011;24099;47.102;15.440;2023-09-18T01:40:00;5.55;;;3.67;;
3667;SDS011;24099;47.102;15.440;2023-09-18T01:42:32;6.93;;;3.50;;
3667;SDS011;24099;47.102;15.440;2023-09-18T01:45:00;4.32;;;3.08;;
3667;SDS011;24099;47.102;15.440;2023-09-18T01:47:28;4.55;;;2.88;;
3667;SDS011;24099;47.102;15.440;2023-09-18T01:49:55;5.25;;;3.75;;
3667;SDS011;24099;47.102;15.440;2023-09-18T01:52:22;4.53;;;3.10;;
3667;SDS011;24099;47.102;15.440;2023-09-18T01:57:18;6.72;;;3.13;;
3667;SDS011;24099;47.102;15.440;2023-09-18T01:59:45;5.30;;;2.97;;
3667;SDS011;24099;47.102;15.440;2023-09-18T02:02:13;4.78;;;3.20;;
3667;SDS011;24099;47.102;15.440;2023-09-18T02:04:40;7.60;;;2.95;;
3667;SDS011;24099;47.102;15.440;2023-09-18T02:07:08;3.55;;;2.78;;
3667;SDS011;24099;47.102;15.440;2023-09-18T02:09:36;5.07;;;3.33;;
3667;SDS011;24099;47.102;15.440;2023-09-18T02:12:03;5.10;;;3.42;;
3667;SDS011;24099;47.102;15.440;2023-09-18T02:14:32;7.18;;;3.20;;
3667;SDS011;24099;47.102;15.440;2023-09-18T02:16:59;8.52;;;2.88;;
3667;SDS011;24099;47.102;15.440;2023-09-18T02:19:28;12.68;;;3.47;;
3667;SDS011;24099;47.102;15.440;2023-09-18T02:21:56;4.60;;;3.05;;
3667;SDS011;24099;47.102;15.440;2023-09-18T02:24:23;4.47;;;3.13;;
3667;SDS011;24099;47.102;15.440;2023-09-18T02:26:51;4.80;;;3.15;;
3667;SDS011;24099;47.102;15.440;2023-09-18T02:29:18;4.53;;;2.60;;
3667;SDS011;24099;47.102;15.440;2023-09-18T02:31:47;3.65;;;2.70;;
3667;SDS011;24099;47.102;15.440;2023-09-18T02:34:14;7.18;;;3.33;;
3667;SDS011;24099;47.102;15.440;2023-09-18T02:36:41;4.15;;;3.15;;
3667;SDS011;24099;47.102;15.440;2023-09-18T02:41:35;4.30;;;3.15;;
3667;SDS011;24099;47.102;15.440;2023-09-18T02:44:03;4.25;;;3.05;;
3667;SDS011;24099;47.102;15.440;2023-09-18T02:46:31;5.50;;;3.28;;
3667;SDS011;24099;47.102;15.440;2023-09-18T02:48:59;4.35;;;3.10;;
3667;SDS011;24099;47.102;15.440;2023-09-18T02:51:27;5.22;;;3.60;;
3667;SDS011;24099;47.102;15.440;2023-09-18T02:53:57;4.88;;;2.90;;
3667;SDS011;24099;47.102;15.440;2023-09-18T02:56:24;5.18;;;3.35;;
3667;SDS011;24099;47.102;15.440;2023-09-18T02:58:52;4.63;;;3.17;;
3667;SDS011;24099;47.102;15.440;2023-09-18T03:01:19;4.60;;;3.08;;
3667;SDS011;24099;47.102;15.440;2023-09-18T03:03:46;5.40;;;3.53;;
3667;SDS011;24099;47.102;15.440;2023-09-18T03:06:15;6.82;;;3.63;;
3667;SDS011;24099;47.102;15.440;2023-09-18T03:08:42;6.90;;;3.22;;
3667;SDS011;24099;47.102;15.440;2023-09-18T03:11:11;4.80;;;2.67;;
3667;SDS011;24099;47.102;15.440;2023-09-18T03:13:42;12.20;;;3.40;;
3667;SDS011;24099;47.102;15.440;2023-09-18T03:16:11;8.52;;;3.40;;
3667;SDS011;24099;47.102;15.440;2023-09-18T03:18:39;10.25;;;3.50;;
3667;SDS011;24099;47.102;15.440;2023-09-18T03:21:06;3.70;;;3.00;;
3667;SDS011;24099;47.102;15.440;2023-09-18T03:26:03;6.57;;;2.95;;
3667;SDS011;24099;47.102;15.440;2023-09-18T03:28:30;5.22;;;3.38;;
3667;SDS011;24099;47.102;15.440;2023-09-18T03:30:58;6.30;;;3.10;;
3667;SDS011;24099;47.102;15.440;2023-09-18T03:33:26;7.15;;;3.08;;
3667;SDS011;24099;47.102;15.440;2023-09-18T03:35:53;6.63;;;3.17;;
3667;SDS011;24099;47.102;15.440;2023-09-18T03:38:26;4.15;;;2.78;;
3667;SDS011;24099;47.102;15.440;2023-09-18T03:40:55;7.78;;;3.33;;
3667;SDS011;24099;47.102;15.440;2023-09-18T03:43:24;4.28;;;2.92;;
3667;SDS011;24099;47.102;15.440;2023-09-18T03:45:51;6.90;;;2.90;;
3667;SDS011;24099;47.102;15.440;2023-09-18T03:48:19;3.95;;;3.08;;
3667;SDS011;24099;47.102;15.440;2023-09-18T03:50:47;4.20;;;3.05;;
3667;SDS011;24099;47.102;15.440;2023-09-18T03:53:14;7.15;;;3.25;;
3667;SDS011;24099;47.102;15.440;2023-09-18T03:55:43;5.38;;;3.22;;
3667;SDS011;24099;47.102;15.440;2023-09-18T04:00:39;6.78;;;3.47;;
3667;SDS011;24099;47.102;15.440;2023-09-18T04:03:06;7.20;;;3.47;;
3667;SDS011;24099;47.102;15.440;2023-09-18T04:05:34;5.10;;;3.65;;
3667;SDS011;24099;47.102;15.440;2023-09-18T04:08:01;7.43;;;3.78;;
3667;SDS011;24099;47.102;15.440;2023-09-18T04:10:29;7.97;;;3.47;;
3667;SDS011;24099;47.102;15.440;2023-09-18T04:12:58;4.28;;;3.13;;
3667;SDS011;24099;47.102;15.440;2023-09-18T04:15:25;5.13;;;3.20;;
3667;SDS011;24099;47.102;15.440;2023-09-18T04:17:57;7.50;;;3.30;;
3667;SDS011;24099;47.102;15.440;2023-09-18T04:20:24;5.35;;;3.47;;
3667;SDS011;24099;47.102;15.440;2023-09-18T04:25:34;4.85;;;3.42;;
3667;SDS011;24099;47.102;15.440;2023-09-18T04:28:02;3.95;;;2.75;;
3667;SDS011;24099;47.102;15.440;2023-09-18T04:30:29;4.18;;;3.17;;
3667;SDS011;24099;47.102;15.440;2023-09-18T04:32:58;4.20;;;3.20;;
3667;SDS011;24099;47.102;15.440;2023-09-18T04:35:25;3.85;;;2.70;;
3667;SDS011;24099;47.102;15.440;2023-09-18T04:37:55;4.93;;;3.42;;
3667;SDS011;24099;47.102;15.440;2023-09-18T04:40:22;6.60;;;3.53;;
3667;SDS011;24099;47.102;15.440;2023-09-18T04:42:50;5.45;;;3.50;;
3667;SDS011;24099;47.102;15.440;2023-09-18T04:45:17;4.47;;;2.95;;
3667;SDS011;24099;47.102;15.440;2023-09-18T04:47:45;4.22;;;3.10;;
3667;SDS011;24099;47.102;15.440;2023-09-18T04:50:14;4.22;;;3.30;;
3667;SDS011;24099;47.102;15.440;2023-09-18T04:52:42;5.80;;;3.25;;
3667;SDS011;24099;47.102;15.440;2023-09-18T04:55:12;4.72;;;3.40;;
3667;SDS011;24099;47.102;15.440;2023-09-18T04:57:40;10.30;;;3.80;;
3667;SDS011;24099;47.102;15.440;2023-09-18T05:00:09;5.43;;;3.72;;
3667;SDS011;24099;47.102;15.440;2023-09-18T05:02:39;4.78;;;3.67;;
3667;SDS011;24099;47.102;15.440;2023-09-18T05:05:06;9.40;;;3.60;;
3667;SDS011;24099;47.102;15.440;2023-09-18T05:07:36;5.38;;;3.10;;
3667;SDS011;24099;47.102;15.440;2023-09-18T05:10:04;6.43;;;3.67;;
3667;SDS011;24099;47.102;15.440;2023-09-18T05:12:31;4.13;;;2.90;;
3667;SDS011;24099;47.102;15.440;2023-09-18T05:17:38;5.38;;;3.42;;
3667;SDS011;24099;47.102;15.440;2023-09-18T05:20:07;7.80;;;3.63;;
3667;SDS011;24099;47.102;15.440;2023-09-18T05:22:38;7.28;;;3.58;;
3667;SDS011;24099;47.102;15.440;2023-09-18T05:25:05;4.32;;;3.10;;
3667;SDS011;24099;47.102;15.440;2023-09-18T05:27:33;8.05;;;3.88;;
3667;SDS011;24099;47.102;15.440;2023-09-18T05:30:00;4.78;;;3.47;;
3667;SDS011;24099;47.102;15.440;2023-09-18T05:32:28;4.55;;;3.28;;
3667;SDS011;24099;47.102;15.440;2023-09-18T05:34:55;4.60;;;3.35;;
3667;SDS011;24099;47.102;15.440;2023-09-18T05:37:27;4.95;;;3.45;;
3667;SDS011;24099;47.102;15.440;2023-09-18T05:42:23;5.45;;;3.50;;
3667;SDS011;24099;47.102;15.440;2023-09-18T05:44:50;7.68;;;3.30;;
3667;SDS011;24099;47.102;15.440;2023-09-18T05:47:18;5.07;;;3.50;;
3667;SDS011;24099;47.102;15.440;2023-09-18T05:52:13;6.05;;;3.20;;
3667;SDS011;24099;47.102;15.440;2023-09-18T05:57:07;5.25;;;3.78;;
3667;SDS011;24099;47.102;15.440;2023-09-18T05:59:36;6.32;;;4.10;;
3667;SDS011;24099;47.102;15.440;2023-09-18T06:02:05;10.10;;;3.78;;
3667;SDS011;24099;47.102;15.440;2023-09-18T06:07:02;6.13;;;3.80;;
3667;SDS011;24099;47.102;15.440;2023-09-18T06:09:29;4.82;;;3.03;;
3667;SDS011;24099;47.102;15.440;2023-09-18T06:11:57;5.00;;;3.50;;
3667;SDS011;24099;47.102;15.440;2023-09-18T06:14:24;4.45;;;3.20;;
3667;SDS011;24099;47.102;15.440;2023-09-18T06:16:53;6.20;;;3.53;;
3667;SDS011;24099;47.102;15.440;2023-09-18T06:19:20;6.60;;;3.80;;
3667;SDS011;24099;47.102;15.440;2023-09-18T06:21:48;7.47;;;4.32;;
3667;SDS011;24099;47.102;15.440;2023-09-18T06:26:42;9.30;;;4.10;;
3667;SDS011;24099;47.102;15.440;2023-09-18T06:31:37;7.60;;;4.45;;
3667;SDS011;24099;47.102;15.440;2023-09-18T06:34:05;9.23;;;3.72;;
3667;SDS011;24099;47.102;15.440;2023-09-18T06:36:33;6.03;;;3.67;;
3667;SDS011;24099;47.102;15.440;2023-09-18T06:41:27;6.57;;;4.10;;
3667;SDS011;24099;47.102;15.440;2023-09-18T06:46:23;8.43;;;4.53;;
3667;SDS011;24099;47.102;15.440;2023-09-18T06:48:50;7.97;;;4.35;;
3667;SDS011;24099;47.102;15.440;2023-09-18T06:51:19;6.43;;;4.20;;
3667;SDS011;24099;47.102;15.440;2023-09-18T06:53:46;9.30;;;4.53;;
3667;SDS011;24099;47.102;15.440;2023-09-18T06:58:41;6.85;;;4.28;;
3667;SDS011;24099;47.102;15.440;2023-09-18T07:01:08;7.82;;;4.70;;
3667;SDS011;24099;47.102;15.440;2023-09-18T07:03:35;7.68;;;4.75;;
3667;SDS011;24099;47.102;15.440;2023-09-18T07:06:05;8.43;;;4.55;;
3667;SDS011;24099;47.102;15.440;2023-09-18T07:11:01;9.55;;;4.80;;
3667;SDS011;24099;47.102;15.440;2023-09-18T07:13:28;7.05;;;4.32;;
3667;SDS011;24099;47.102;15.440;2023-09-18T07:15:56;7.15;;;4.57;;
3667;SDS011;24099;47.102;15.440;2023-09-18T07:20:50;8.18;;;5.13;;
3667;SDS011;24099;47.102;15.440;2023-09-18T07:23:17;10.00;;;4.50;;
3667;SDS011;24099;47.102;15.440;2023-09-18T07:25:46;10.00;;;5.32;;
3667;SDS011;24099;47.102;15.440;2023-09-18T07:28:15;8.95;;;5.53;;
3667;SDS011;24099;47.102;15.440;2023-09-18T07:30:44;11.00;;;5.38;;
3667;SDS011;24099;47.102;15.440;2023-09-18T07:33:12;11.23;;;5.90;;
3667;SDS011;24099;47.102;15.440;2023-09-18T07:35:41;10.88;;;5.78;;
3667;SDS011;24099;47.102;15.440;2023-09-18T07:38:08;13.02;;;5.90;;
3667;SDS011;24099;47.102;15.440;2023-09-18T07:40:36;11.82;;;6.03;;
3667;SDS011;24099;47.102;15.440;2023-09-18T07:45:31;10.30;;;5.95;;
3667;SDS011;24099;47.102;15.440;2023-09-18T07:47:59;8.55;;;5.60;;
3667;SDS011;24099;47.102;15.440;2023-09-18T07:50:26;9.23;;;5.97;;
3667;SDS011;24099;47.102;15.440;2023-09-18T07:52:53;8.18;;;5.40;;
3667;SDS011;24099;47.102;15.440;2023-09-18T07:55:21;9.13;;;5.97;;
3667;SDS011;24099;47.102;15.440;2023-09-18T08:00:17;11.73;;;6.88;;
3667;SDS011;24099;47.102;15.440;2023-09-18T08:02:45;9.88;;;6.45;;
3667;SDS011;24099;47.102;15.440;2023-09-18T08:05:15;11.65;;;6.63;;
3667;SDS011;24099;47.102;15.440;2023-09-18T08:07:42;15.00;;;7.00;;
3667;SDS011;24099;47.102;15.440;2023-09-18T08:12:37;13.07;;;6.97;;
3667;SDS011;24099;47.102;15.440;2023-09-18T08:17:32;7.70;;;5.43;;
3667;SDS011;24099;47.102;15.440;2023-09-18T08:20:01;8.50;;;5.20;;
3667;SDS011;24099;47.102;15.440;2023-09-18T08:22:35;6.78;;;4.75;;
3667;SDS011;24099;47.102;15.440;2023-09-18T08:25:02;5.72;;;3.83;;
3667;SDS011;24099;47.102;15.440;2023-09-18T08:27:30;8.73;;;4.20;;
3667;SDS011;24099;47.102;15.440;2023-09-18T08:29:58;6.15;;;3.65;;
3667;SDS011;24099;47.102;15.440;2023-09-18T08:32:25;5.95;;;3.50;;
3667;SDS011;24099;47.102;15.440;2023-09-18T08:34:55;3.97;;;3.10;;
3667;SDS011;24099;47.102;15.440;2023-09-18T08:37:25;4.85;;;3.13;;
3667;SDS011;24099;47.102;15.440;2023-09-18T08:39:52;4.50;;;3.17;;
3667;SDS011;24099;47.102;15.440;2023-09-18T08:44:47;6.40;;;3.67;;
3667;SDS011;24099;47.102;15.440;2023-09-18T08:47:15;4.68;;;3.17;;
3667;SDS011;24099;47.102;15.440;2023-09-18T08:49:44;6.03;;;3.75;;
3667;SDS011;24099;47.102;15.440;2023-09-18T08:52:11;4.95;;;3.13;;
3667;SDS011;24099;47.102;15.440;2023-09-18T08:54:41;4.88;;;3.25;;
3667;SDS011;24099;47.102;15.440;2023-09-18T08:57:09;5.40;;;3.22;;
3667;SDS011;24099;47.102;15.440;2023-09-18T08:59:36;7.47;;;3.78;;
3667;SDS011;24099;47.102;15.440;2023-09-18T09:02:05;4.47;;;3.13;;
3667;SDS011;24099;47.102;15.440;2023-09-18T09:04:36;4.07;;;3.00;;
3667;SDS011;24099;47.102;15.440;2023-09-18T09:07:04;6.03;;;2.85;;
3667;SDS011;24099;47.102;15.440;2023-09-18T09:09:31;4.05;;;3.10;;
3667;SDS011;24099;47.102;15.440;2023-09-18T09:12:00;7.75;;;3.10;;
3667;SDS011;24099;47.102;15.440;2023-09-18T09:14:28;3.35;;;3.00;;
3667;SDS011;24099;47.102;15.440;2023-09-18T09:19:29;3.67;;;2.78;;
3667;SDS011;24099;47.102;15.440;2023-09-18T09:21:57;4.38;;;3.13;;
3667;SDS011;24099;47.102;15.440;2023-09-18T09:24:36;2.90;;;2.53;;
3667;SDS011;24099;47.102;15.440;2023-09-18T09:27:05;4.38;;;3.00;;
3667;SDS011;24099;47.102;15.440;2023-09-18T09:29:33;3.58;;;2.60;;
3667;SDS011;24099;47.102;15.440;2023-09-18T09:32:13;3.97;;;2.75;;
3667;SDS011;24099;47.102;15.440;2023-09-18T09:34:41;3.20;;;2.78;;
3667;SDS011;24099;47.102;15.440;2023-09-18T09:37:09;2.97;;;2.55;;
3667;SDS011;24099;47.102;15.440;2023-09-18T09:39:51;3.85;;;2.90;;
3667;SDS011;24099;47.102;15.440;2023-09-18T09:42:21;4.78;;;2.78;;
3667;SDS011;24099;47.102;15.440;2023-09-18T09:44:55;3.08;;;2.78;;
3667;SDS011;24099;47.102;15.440;2023-09-18T09:47:22;2.78;;;2.45;;
3667;SDS011;24099;47.102;15.440;2023-09-18T09:49:50;3.60;;;2.80;;
3667;SDS011;24099;47.102;15.440;2023-09-18T09:52:19;6.28;;;2.67;;
3667;SDS011;24099;47.102;15.440;2023-09-18T09:54:47;3.80;;;2.72;;
3667;SDS011;24099;47.102;15.440;2023-09-18T09:57:15;3.00;;;2.70;;
3667;SDS011;24099;47.102;15.440;2023-09-18T09:59:43;4.38;;;2.80;;
3667;SDS011;24099;47.102;15.440;2023-09-18T10:02:11;3.08;;;2.60;;
3667;SDS011;24099;47.102;15.440;2023-09-18T10:04:44;3.08;;;2.80;;
3667;SDS011;24099;47.102;15.440;2023-09-18T10:07:13;3.83;;;2.78;;
3667;SDS011;24099;47.102;15.440;2023-09-18T10:09:42;2.72;;;2.42;;
3667;SDS011;24099;47.102;15.440;2023-09-18T10:12:10;3.70;;;2.92;;
3667;SDS011;24099;47.102;15.440;2023-09-18T10:14:39;2.88;;;2.50;;
3667;SDS011;24099;47.102;15.440;2023-09-18T10:17:11;4.78;;;2.65;;
3667;SDS011;24099;47.102;15.440;2023-09-18T10:19:45;4.20;;;2.60;;
3667;SDS011;24099;47.102;15.440;2023-09-18T10:22:14;3.78;;;2.78;;
3667;SDS011;24099;47.102;15.440;2023-09-18T10:24:47;3.42;;;2.47;;
3667;SDS011;24099;47.102;15.440;2023-09-18T10:27:17;5.38;;;2.78;;
3667;SDS011;24099;47.102;15.440;2023-09-18T10:29:47;3.30;;;2.45;;
3667;SDS011;24099;47.102;15.440;2023-09-18T10:32:18;4.72;;;2.92;;
3667;SDS011;24099;47.102;15.440;2023-09-18T10:34:46;4.20;;;2.40;;
3667;SDS011;24099;47.102;15.440;2023-09-18T10:37:14;4.97;;;3.45;;
3667;SDS011;24099;47.102;15.440;2023-09-18T10:39:42;7.82;;;3.20;;
3667;SDS011;24099;47.102;15.440;2023-09-18T10:42:19;2.97;;;2.67;;
3667;SDS011;24099;47.102;15.440;2023-09-18T10:44:49;8.32;;;2.60;;
3667;SDS011;24099;47.102;15.440;2023-09-18T10:47:18;2.50;;;2.30;;
3667;SDS011;24099;47.102;15.440;2023-09-18T10:49:46;3.88;;;2.75;;
3667;SDS011;24099;47.102;15.440;2023-09-18T10:52:15;3.45;;;2.65;;
3667;SDS011;24099;47.102;15.440;2023-09-18T10:54:42;3.50;;;2.50;;
3667;SDS011;24099;47.102;15.440;2023-09-18T10:57:11;3.10;;;2.80;;
3667;SDS011;24099;47.102;15.440;2023-09-18T10:59:43;3.65;;;2.70;;
3667;SDS011;24099;47.102;15.440;2023-09-18T11:02:13;3.47;;;2.75;;
3667;SDS011;24099;47.102;15.440;2023-09-18T11:04:42;6.53;;;3.20;;
3667;SDS011;24099;47.102;15.440;2023-09-18T11:07:18;7.65;;;2.80;;
3667;SDS011;24099;47.102;15.440;2023-09-18T11:09:46;3.95;;;2.97;;
3667;SDS011;24099;47.102;15.440;2023-09-18T11:12:14;3.25;;;2.60;;
3667;SDS011;24099;47.102;15.440;2023-09-18T11:14:56;2.78;;;2.10;;
3667;SDS011;24099;47.102;15.440;2023-09-18T11:17:30;8.75;;;2.92;;
3667;SDS011;24099;47.102;15.440;2023-09-18T11:20:05;2.67;;;2.40;;
3667;SDS011;24099;47.102;15.440;2023-09-18T11:22:34;4.75;;;2.70;;
3667;SDS011;24099;47.102;15.440;2023-09-18T11:27:53;3.53;;;2.92;;
3667;SDS011;24099;47.102;15.440;2023-09-18T11:30:21;5.78;;;3.10;;
3667;SDS011;24099;47.102;15.440;2023-09-18T11:32:49;4.93;;;2.50;;
3667;SDS011;24099;47.102;15.440;2023-09-18T11:35:18;4.95;;;2.90;;
3667;SDS011;24099;47.102;15.440;2023-09-18T11:37:46;3.75;;;3.03;;
3667;SDS011;24099;47.102;15.440;2023-09-18T11:40:29;2.97;;;2.53;;
3667;SDS011;24099;47.102;15.440;2023-09-18T11:45:43;3.90;;;2.97;;
3667;SDS011;24099;47.102;15.440;2023-09-18T11:48:12;3.70;;;2.70;;
3667;SDS011;24099;47.102;15.440;2023-09-18T11:50:42;3.55;;;2.90;;
3667;SDS011;24099;47.102;15.440;2023-09-18T11:53:11;3.17;;;2.88;;
3667;SDS011;24099;47.102;15.440;2023-09-18T11:55:39;6.35;;;3.03;;
3667;SDS011;24099;47.102;15.440;2023-09-18T11:58:06;7.25;;;2.90;;
3667;SDS011;24099;47.102;15.440;2023-09-18T12:00:34;4.00;;;3.05;;
3667;SDS011;24099;47.102;15.440;2023-09-18T12:03:18;4.03;;;2.80;;
3667;SDS011;24099;47.102;15.440;2023-09-18T12:05:55;3.38;;;2.45;;
3667;SDS011;24099;47.102;15.440;2023-09-18T12:08:25;3.58;;;2.78;;
3667;SDS011;24099;47.102;15.440;2023-09-18T12:10:53;3.78;;;2.58;;
3667;SDS011;24099;47.102;15.440;2023-09-18T12:13:20;3.10;;;2.55;;
3667;SDS011;24099;47.102;15.440;2023-09-18T12:15:50;7.68;;;3.20;;
3667;SDS011;24099;47.102;15.440;2023-09-18T12:18:24;7.90;;;3.25;;
3667;SDS011;24099;47.102;15.440;2023-09-18T12:20:55;5.18;;;3.05;;
3667;SDS011;24099;47.102;15.440;2023-09-18T12:23:24;4.70;;;2.90;;
3667;SDS011;24099;47.102;15.440;2023-09-18T12:25:57;4.50;;;3.00;;
3667;SDS011;24099;47.102;15.440;2023-09-18T12:28:25;2.83;;;2.55;;
3667;SDS011;24099;47.102;15.440;2023-09-18T12:30:56;5.57;;;3.20;;
3667;SDS011;24099;47.102;15.440;2023-09-18T12:33:24;3.33;;;2.88;;
3667;SDS011;24099;47.102;15.440;2023-09-18T12:35:52;4.13;;;2.85;;
3667;SDS011;24099;47.102;15.440;2023-09-18T12:38:21;3.22;;;2.75;;
3667;SDS011;24099;47.102;15.440;2023-09-18T12:40:52;3.47;;;2.65;;
3667;SDS011;24099;47.102;15.440;2023-09-18T12:43:20;4.22;;;3.20;;
3667;SDS011;24099;47.102;15.440;2023-09-18T12:45:49;3.55;;;2.88;;
3667;SDS011;24099;47.102;15.440;2023-09-18T12:48:17;3.05;;;2.63;;
3667;SDS011;24099;47.102;15.440;2023-09-18T12:50:45;4.13;;;3.00;;
3667;SDS011;24099;47.102;15.440;2023-09-18T12:53:12;4.15;;;2.80;;
3667;SDS011;24099;47.102;15.440;2023-09-18T12:55:42;5.10;;;2.72;;
3667;SDS011;24099;47.102;15.440;2023-09-18T12:58:10;2.95;;;2.63;;
3667;SDS011;24099;47.102;15.440;2023-09-18T13:00:44;3.05;;;2.75;;
3667;SDS011;24099;47.102;15.440;2023-09-18T13:03:14;3.83;;;2.75;;
3667;SDS011;24099;47.102;15.440;2023-09-18T13:05:42;4.18;;;2.67;;
3667;SDS011;24099;47.102;15.440;2023-09-18T13:08:09;3.08;;;2.60;;
3667;SDS011;24099;47.102;15.440;2023-09-18T13:10:42;3.60;;;2.97;;
3667;SDS011;24099;47.102;15.440;2023-09-18T13:13:15;3.95;;;2.80;;
3667;SDS011;24099;47.102;15.440;2023-09-18T13:15:43;2.95;;;2.65;;
3667;SDS011;24099;47.102;15.440;2023-09-18T13:18:13;4.20;;;2.60;;
3667;SDS011;24099;47.102;15.440;2023-09-18T13:20:41;3.60;;;2.60;;
3667;SDS011;24099;47.102;15.440;2023-09-18T13:23:09;9.25;;;3.90;;
3667;SDS011;24099;47.102;15.440;2023-09-18T13:25:38;11.77;;;3.60;;
3667;SDS011;24099;47.102;15.440;2023-09-18T13:28:09;5.43;;;2.65;;
3667;SDS011;24099;47.102;15.440;2023-09-18T13:30:37;3.53;;;2.60;;
3667;SDS011;24099;47.102;15.440;2023-09-18T13:33:06;4.82;;;2.95;;
3667;SDS011;24099;47.102;15.440;2023-09-18T13:35:34;5.40;;;2.85;;
3667;SDS011;24099;47.102;15.440;2023-09-18T13:38:03;3.08;;;2.75;;
3667;SDS011;24099;47.102;15.440;2023-09-18T13:40:31;6.03;;;2.70;;
3667;SDS011;24099;47.102;15.440;2023-09-18T13:42:59;3.40;;;3.08;;
3667;SDS011;24099;47.102;15.440;2023-09-18T13:45:28;7.80;;;2.70;;
3667;SDS011;24099;47.102;15.440;2023-09-18T13:47:55;9.05;;;3.20;;
3667;SDS011;24099;47.102;15.440;2023-09-18T13:50:22;3.80;;;3.00;;
3667;SDS011;24099;47.102;15.440;2023-09-18T13:52:50;3.92;;;3.08;;
3667;SDS011;24099;47.102;15.440;2023-09-18T13:55:22;6.15;;;3.00;;
3667;SDS011;24099;47.102;15.440;2023-09-18T13:57:49;6.18;;;3.10;;
3667;SDS011;24099;47.102;15.440;2023-09-18T14:00:19;5.22;;;2.85;;
3667;SDS011;24099;47.102;15.440;2023-09-18T14:02:48;5.85;;;3.10;;
3667;SDS011;24099;47.102;15.440;2023-09-18T14:05:16;4.60;;;3.13;;
3667;SDS011;24099;47.102;15.440;2023-09-18T14:07:45;3.38;;;2.65;;
3667;SDS011;24099;47.102;15.440;2023-09-18T14:10:12;4.72;;;3.00;;
3667;SDS011;24099;47.102;15.440;2023-09-18T14:12:41;4.45;;;2.70;;
3667;SDS011;24099;47.102;15.440;2023-09-18T14:15:09;6.32;;;2.67;;
3667;SDS011;24099;47.102;15.440;2023-09-18T14:17:37;5.13;;;2.88;;
3667;SDS011;24099;47.102;15.440;2023-09-18T14:20:07;4.53;;;2.50;;
3667;SDS011;24099;47.102;15.440;2023-09-18T14:22:36;4.82;;;2.92;;
3667;SDS011;24099;47.102;15.440;2023-09-18T14:25:04;3.83;;;2.60;;
3667;SDS011;24099;47.102;15.440;2023-09-18T14:27:31;3.97;;;2.97;;
3667;SDS011;24099;47.102;15.440;2023-09-18T14:30:00;3.28;;;2.63;;
3667;SDS011;24099;47.102;15.440;2023-09-18T14:32:31;4.18;;;2.70;;
3667;SDS011;24099;47.102;15.440;2023-09-18T14:34:58;4.35;;;2.83;;
3667;SDS011;24099;47.102;15.440;2023-09-18T14:37:29;10.00;;;3.10;;
3667;SDS011;24099;47.102;15.440;2023-09-18T14:39:56;7.95;;;3.15;;
3667;SDS011;24099;47.102;15.440;2023-09-18T14:42:27;4.80;;;2.90;;
3667;SDS011;24099;47.102;15.440;2023-09-18T14:44:54;4.43;;;3.00;;
3667;SDS011;24099;47.102;15.440;2023-09-18T14:47:21;4.95;;;3.00;;
3667;SDS011;24099;47.102;15.440;2023-09-18T14:49:49;4.28;;;2.50;;
3667;SDS011;24099;47.102;15.440;2023-09-18T14:52:17;5.03;;;2.67;;
3667;SDS011;24099;47.102;15.440;2023-09-18T14:54:47;6.53;;;3.25;;
3667;SDS011;24099;47.102;15.440;2023-09-18T14:57:15;5.43;;;3.10;;
3667;SDS011;24099;47.102;15.440;2023-09-18T14:59:42;8.35;;;3.40;;
3667;SDS011;24099;47.102;15.440;2023-09-18T15:02:15;5.32;;;2.92;;
3667;SDS011;24099;47.102;15.440;2023-09-18T15:04:43;3.78;;;2.70;;
3667;SDS011;24099;47.102;15.440;2023-09-18T15:07:11;7.97;;;3.60;;
3667;SDS011;24099;47.102;15.440;2023-09-18T15:09:39;4.50;;;2.70;;
3667;SDS011;24099;47.102;15.440;2023-09-18T15:12:11;7.22;;;3.45;;
3667;SDS011;24099;47.102;15.440;2023-09-18T15:14:39;5.50;;;2.90;;
3667;SDS011;24099;47.102;15.440;2023-09-18T15:17:06;3.97;;;2.55;;
3667;SDS011;24099;47.102;15.440;2023-09-18T15:19:34;3.35;;;2.25;;
3667;SDS011;24099;47.102;15.440;2023-09-18T15:22:02;13.45;;;3.53;;
3667;SDS011;24099;47.102;15.440;2023-09-18T15:24:30;5.55;;;2.80;;
3667;SDS011;24099;47.102;15.440;2023-09-18T15:26:58;3.38;;;2.78;;
3667;SDS011;24099;47.102;15.440;2023-09-18T15:29:27;4.93;;;2.80;;
3667;SDS011;24099;47.102;15.440;2023-09-18T15:31:56;3.10;;;2.72;;
3667;SDS011;24099;47.102;15.440;2023-09-18T15:34:25;3.72;;;2.90;;
3667;SDS011;24099;47.102;15.440;2023-09-18T15:36:55;6.38;;;2.78;;
3667;SDS011;24099;47.102;15.440;2023-09-18T15:39:22;4.78;;;3.75;;
3667;SDS011;24099;47.102;15.440;2023-09-18T15:41:50;4.10;;;2.60;;
3667;SDS011;24099;47.102;15.440;2023-09-18T15:44:18;4.63;;;2.38;;
3667;SDS011;24099;47.102;15.440;2023-09-18T15:46:47;3.13;;;2.78;;
3667;SDS011;24099;47.102;15.440;2023-09-18T15:49:17;5.15;;;2.40;;
3667;SDS011;24099;47.102;15.440;2023-09-18T15:51:44;2.95;;;2.40;;
3667;SDS011;24099;47.102;15.440;2023-09-18T15:54:17;13.45;;;3.95;;
3667;SDS011;24099;47.102;15.440;2023-09-18T15:56:44;5.10;;;2.58;;
3667;SDS011;24099;47.102;15.440;2023-09-18T15:59:14;6.18;;;2.60;;
3667;SDS011;24099;47.102;15.440;2023-09-18T16:01:41;4.30;;;2.55;;
3667;SDS011;24099;47.102;15.440;2023-09-18T16:04:10;3.60;;;2.40;;
3667;SDS011;24099;47.102;15.440;2023-09-18T16:06:38;3.83;;;3.03;;